createdAt,value
2019-04-23T00:03:51.522Z,34.45
2019-04-23T00:06:26.426Z,33.78
2019-04-23T00:08:58.048Z,33.90
2019-04-23T00:11:34.166Z,33.05
2019-04-23T00:13:58.125Z,31.60
2019-04-23T00:16:36.399Z,32.67
2019-04-23T00:18:55.779Z,34.03
2019-04-23T00:21:46.057Z,30.37
2019-04-23T00:24:53.020Z,30.92
2019-04-23T00:27:16.969Z,30.90
2019-04-23T00:29:36.809Z,31.73
2019-04-23T00:32:08.137Z,32.05
2019-04-23T00:34:42.546Z,32.63
2019-04-23T00:37:12.944Z,33.30
2019-04-23T00:39:40.806Z,32.35
2019-04-23T00:42:08.292Z,33.15
2019-04-23T00:44:40.127Z,30.72
2019-04-23T00:47:01.059Z,33.60
2019-04-23T00:49:44.226Z,32.65
2019-04-23T00:52:15.219Z,33.63
2019-04-23T00:54:46.770Z,31.62
2019-04-23T00:59:44.778Z,30.25
2019-04-23T01:02:14.699Z,29.10
2019-04-23T01:04:39.816Z,29.10
2019-04-23T01:07:11.123Z,29.02
2019-04-23T01:09:45.644Z,27.85
2019-04-23T01:12:14.042Z,26.95
2019-04-23T01:14:41.470Z,29.00
2019-04-23T01:17:22.143Z,28.47
2019-04-23T01:19:51.777Z,28.57
2019-04-23T01:22:06.662Z,27.73
2019-04-23T01:24:58.054Z,28.47
2019-04-23T01:28:04.434Z,28.50
2019-04-23T01:30:23.618Z,28.62
2019-04-23T01:32:48.286Z,28.77
2019-04-23T01:35:20.393Z,28.85
2019-04-23T01:37:46.726Z,30.37
2019-04-23T01:40:26.605Z,29.25
2019-04-23T01:42:48.857Z,28.83
2019-04-23T01:45:31.587Z,29.57
2019-04-23T01:47:54.835Z,30.52
2019-04-23T01:50:43.434Z,30.88
2019-04-23T01:53:15.026Z,30.57
2019-04-23T01:55:29.636Z,30.70
2019-04-23T01:58:05.831Z,34.90
2019-04-23T02:00:29.210Z,33.80
2019-04-23T02:08:06.556Z,38.63
2019-04-23T02:10:39.529Z,37.80
2019-04-23T02:15:38.082Z,29.72
2019-04-23T02:20:43.187Z,28.65
2019-04-23T02:25:49.970Z,28.92
2019-04-23T02:31:14.929Z,30.32
2019-04-23T02:33:34.383Z,30.50
2019-04-23T02:36:08.227Z,28.77
2019-04-23T02:38:44.272Z,29.25
2019-04-23T02:43:39.200Z,29.27
2019-04-23T02:50:53.974Z,29.10
2019-04-23T02:56:12.238Z,29.15
2019-04-23T03:03:44.927Z,26.93
2019-04-23T03:06:23.743Z,25.65
2019-04-23T03:08:42.779Z,25.85
2019-04-23T03:13:50.992Z,26.73
2019-04-23T03:16:55.023Z,26.10
2019-04-23T03:27:17.103Z,26.87
2019-04-23T03:29:40.469Z,25.52
2019-04-23T03:39:51.829Z,22.10
2019-04-23T03:42:17.129Z,23.30
2019-04-23T03:47:15.755Z,23.67
2019-04-23T03:49:43.536Z,23.18
2019-04-23T03:52:25.447Z,23.02
2019-04-23T04:12:31.698Z,19.90
2019-04-23T04:14:46.309Z,20.92
2019-04-23T04:22:28.863Z,20.02
2019-04-23T04:25:02.875Z,20.88
2019-04-23T04:27:36.475Z,20.95
2019-04-23T04:29:52.270Z,22.07
2019-04-23T04:32:11.887Z,21.55
2019-04-23T04:35:12.484Z,21.60
2019-04-23T04:39:53.111Z,21.60
2019-04-23T04:44:47.876Z,22.60
2019-04-23T04:47:28.387Z,21.87
2019-04-23T04:49:56.199Z,22.10
2019-04-23T04:52:34.204Z,21.93
2019-04-23T04:54:44.491Z,21.33
2019-04-23T04:57:30.173Z,22.32
2019-04-23T05:00:08.295Z,21.25
2019-04-23T05:05:05.195Z,21.35
2019-04-23T05:07:27.871Z,21.10
2019-04-23T05:12:22.932Z,22.75
2019-04-23T05:14:56.929Z,22.48
2019-04-23T05:17:35.993Z,23.45
2019-04-23T05:20:03.082Z,23.92
2019-04-23T05:22:33.689Z,23.20
2019-04-23T05:24:52.543Z,23.30
2019-04-23T05:27:29.270Z,22.87
2019-04-23T05:30:02.939Z,23.25
2019-04-23T05:32:26.829Z,20.92
2019-04-23T05:35:07.526Z,18.67
2019-04-23T05:37:42.987Z,21.15
2019-04-23T05:40:02.619Z,21.15
2019-04-23T05:42:31.990Z,21.87
2019-04-23T05:45:18.501Z,19.70
2019-04-23T05:47:56.748Z,20.02
2019-04-23T05:50:09.934Z,20.82
2019-04-23T05:52:36.040Z,20.95
2019-04-23T05:55:04.074Z,21.68
2019-04-23T05:57:34.583Z,20.25
2019-04-23T06:00:04.116Z,19.85
2019-04-23T06:02:45.639Z,18.37
2019-04-23T06:05:15.563Z,16.95
2019-04-23T06:07:42.473Z,17.48
2019-04-23T06:10:14.576Z,18.07
2019-04-23T06:12:46.851Z,18.10
2019-04-23T06:15:20.808Z,17.15
2019-04-23T06:17:47.903Z,17.57
2019-04-23T06:20:31.612Z,16.60
2019-04-23T06:22:51.165Z,16.12
2019-04-23T06:25:44.819Z,16.48
2019-04-23T06:27:55.597Z,16.82
2019-04-23T06:30:26.583Z,16.20
2019-04-23T06:33:17.995Z,17.15
2019-04-23T06:35:47.079Z,15.55
2019-04-23T06:38:22.114Z,16.75
2019-04-23T06:40:26.998Z,16.30
2019-04-23T06:43:05.006Z,16.37
2019-04-23T06:45:32.072Z,16.17
2019-04-23T06:48:09.073Z,15.75
2019-04-23T06:50:35.546Z,16.05
2019-04-23T06:53:02.440Z,16.10
2019-04-23T06:58:13.627Z,16.85
2019-04-23T07:00:42.097Z,16.97
2019-04-23T07:03:14.729Z,15.93
2019-04-23T07:06:13.554Z,15.98
2019-04-23T07:08:44.684Z,15.00
2019-04-23T07:11:08.315Z,14.03
2019-04-23T07:13:40.208Z,15.08
2019-04-23T07:16:04.689Z,14.13
2019-04-23T07:18:39.636Z,13.18
2019-04-23T07:21:07.447Z,13.48
2019-04-23T07:26:21.269Z,13.25
2019-04-23T07:28:47.986Z,13.48
2019-04-23T07:31:18.967Z,23.20
2019-04-23T07:33:44.225Z,21.48
2019-04-23T07:36:08.677Z,14.58
2019-04-23T07:38:56.439Z,12.75
2019-04-23T07:41:44.752Z,13.38
2019-04-23T07:44:33.109Z,12.50
2019-04-23T07:47:11.806Z,11.95
2019-04-23T07:49:31.089Z,12.20
2019-04-23T07:52:11.593Z,12.33
2019-04-23T07:54:41.321Z,12.47
2019-04-23T07:57:10.700Z,13.22
2019-04-23T08:02:16.358Z,12.95
2019-04-23T08:04:48.412Z,12.53
2019-04-23T08:07:06.655Z,11.55
2019-04-23T08:09:43.615Z,12.50
2019-04-23T08:12:13.690Z,13.83
2019-04-23T08:14:45.069Z,13.72
2019-04-23T08:17:10.826Z,12.75
2019-04-23T08:19:51.284Z,11.57
2019-04-23T08:22:22.169Z,12.45
2019-04-23T08:24:50.728Z,12.33
2019-04-23T08:27:18.164Z,11.50
2019-04-23T08:29:52.597Z,12.00
2019-04-23T08:32:19.439Z,11.63
2019-04-23T08:34:58.732Z,12.70
2019-04-23T08:40:06.720Z,11.97
2019-04-23T08:42:48.002Z,11.40
2019-04-23T08:45:21.816Z,11.97
2019-04-23T08:48:02.981Z,12.53
2019-04-23T08:50:27.702Z,13.08
2019-04-23T08:53:05.220Z,11.30
2019-04-23T08:55:46.385Z,12.95
2019-04-23T08:57:47.068Z,11.78
2019-04-23T09:00:32.983Z,12.07
2019-04-23T09:03:00.211Z,11.10
2019-04-23T09:05:32.482Z,11.95
2019-04-23T09:10:38.966Z,11.97
2019-04-23T09:13:29.597Z,11.50
2019-04-23T09:18:04.636Z,12.25
2019-04-23T09:20:41.161Z,11.10
2019-04-23T09:23:08.123Z,10.98
2019-04-23T09:25:46.515Z,11.95
2019-04-23T09:28:09.451Z,11.55
2019-04-23T09:30:38.792Z,12.60
2019-04-23T09:33:13.900Z,12.40
2019-04-23T09:35:52.808Z,11.85
2019-04-23T09:41:27.666Z,12.33
2019-04-23T09:44:14.861Z,13.03
2019-04-23T09:46:53.037Z,14.93
2019-04-23T09:49:20.647Z,12.82
2019-04-23T09:51:58.960Z,13.78
2019-04-23T09:56:48.148Z,12.88
2019-04-23T09:59:40.858Z,13.45
2019-04-23T10:01:45.466Z,13.22
2019-04-23T10:04:07.487Z,12.25
2019-04-23T10:06:30.923Z,12.28
2019-04-23T10:08:58.702Z,12.13
2019-04-23T10:11:28.259Z,11.63
2019-04-23T10:13:58.596Z,11.85
2019-04-23T10:16:30.924Z,12.95
2019-04-23T10:18:59.361Z,11.95
2019-04-23T10:21:29.300Z,12.75
2019-04-23T10:23:59.284Z,12.30
2019-04-23T10:26:28.382Z,12.37
2019-04-23T10:29:02.369Z,11.97
2019-04-23T10:31:31.609Z,12.10
2019-04-23T10:34:01.963Z,11.78
2019-04-23T10:36:32.524Z,11.88
2019-04-23T10:39:08.592Z,11.73
2019-04-23T10:41:32.649Z,11.95
2019-04-23T10:44:19.307Z,12.47
2019-04-23T10:47:26.677Z,13.30
2019-04-23T10:49:59.767Z,12.03
2019-04-23T10:55:00.049Z,11.40
2019-04-23T10:57:25.308Z,12.23
2019-04-23T11:00:00.071Z,12.53
2019-04-23T11:05:04.445Z,12.23
2019-04-23T11:13:11.345Z,12.58
2019-04-23T11:15:36.199Z,11.95
2019-04-23T11:20:35.410Z,12.30
2019-04-23T11:23:08.126Z,12.88
2019-04-23T11:35:39.933Z,13.60
2019-04-23T11:38:22.057Z,13.62
2019-04-23T11:40:41.924Z,13.08
2019-04-23T11:43:09.735Z,13.83
2019-04-23T11:45:53.945Z,14.58
2019-04-23T11:51:20.133Z,13.72
2019-04-23T11:53:17.053Z,12.70
2019-04-23T12:01:02.556Z,14.00
2019-04-23T12:03:46.818Z,13.95
2019-04-23T12:06:39.007Z,13.68
2019-04-23T12:09:17.676Z,13.50
2019-04-23T12:17:17.292Z,14.30
2019-04-23T12:22:10.804Z,14.47
2019-04-23T12:29:44.041Z,13.18
2019-04-23T12:35:09.033Z,13.03
2019-04-23T12:37:34.555Z,12.95
2019-04-23T12:40:12.825Z,14.43
2019-04-23T12:42:48.929Z,14.05
2019-04-23T12:45:18.114Z,13.72
2019-04-23T12:47:43.700Z,13.20
2019-04-23T12:50:19.057Z,14.23
2019-04-23T12:52:40.619Z,12.90
2019-04-23T12:55:23.394Z,13.43
2019-04-23T12:57:35.586Z,13.13
2019-04-23T13:00:05.065Z,12.75
2019-04-23T13:02:44.603Z,13.22
2019-04-23T13:05:12.758Z,13.08
2019-04-23T13:10:15.890Z,12.88
2019-04-23T13:15:12.855Z,13.18
2019-04-23T13:22:53.472Z,11.65
2019-04-23T13:25:19.977Z,11.65
2019-04-23T13:27:59.142Z,12.58
2019-04-23T13:30:23.288Z,12.00
2019-04-23T13:40:29.250Z,13.18
2019-04-23T13:43:14.519Z,12.03
2019-04-23T13:48:03.432Z,12.13
2019-04-23T13:50:38.835Z,12.45
2019-04-23T13:53:18.015Z,12.88
2019-04-23T14:03:30.183Z,12.18
2019-04-23T14:06:12.948Z,12.68
2019-04-23T14:08:50.144Z,13.30
2019-04-23T14:11:10.834Z,12.23
2019-04-23T14:16:16.923Z,13.25
2019-04-23T14:18:51.560Z,13.03
2019-04-23T14:21:14.104Z,13.10
2019-04-23T14:24:00.412Z,12.85
2019-04-23T14:28:41.698Z,13.55
2019-04-23T14:36:17.367Z,13.98
2019-04-23T14:38:44.262Z,13.83
2019-04-23T14:43:56.594Z,14.33
2019-04-23T14:48:51.635Z,14.25
2019-04-23T14:51:37.494Z,14.53
2019-04-23T14:53:48.356Z,14.45
2019-04-23T14:56:30.152Z,14.55
2019-04-23T15:03:49.133Z,14.07
2019-04-23T15:09:13.929Z,14.43
2019-04-23T15:11:27.960Z,14.28
2019-04-23T15:13:53.911Z,14.90
2019-04-23T15:24:23.175Z,14.18
2019-04-23T15:28:57.346Z,15.63
2019-04-23T15:34:23.933Z,14.58
2019-04-23T15:39:33.241Z,13.30
2019-04-23T15:42:12.088Z,12.50
2019-04-23T15:44:13.674Z,13.25
2019-04-23T15:46:58.167Z,13.30
2019-04-23T15:51:52.514Z,12.78
2019-04-23T15:54:22.818Z,12.88
2019-04-23T15:57:01.223Z,12.58
2019-04-23T15:59:27.521Z,12.88
2019-04-23T16:01:39.684Z,12.58
2019-04-23T16:03:53.800Z,12.90
2019-04-23T16:06:26.762Z,12.37
2019-04-23T16:09:26.177Z,12.28
2019-04-23T16:11:59.158Z,11.68
2019-04-23T16:16:51.593Z,12.25
2019-04-23T16:22:09.324Z,13.08
2019-04-23T16:24:25.855Z,12.70
2019-04-23T16:27:07.472Z,12.23
2019-04-23T16:29:48.939Z,12.03
2019-04-23T16:32:08.571Z,11.97
2019-04-23T16:34:36.586Z,12.03
2019-04-23T16:39:56.805Z,12.18
2019-04-23T16:42:23.740Z,12.50
2019-04-23T16:45:07.507Z,12.23
2019-04-23T16:47:26.426Z,12.30
2019-04-23T16:50:03.438Z,13.10
2019-04-23T16:52:21.873Z,12.33
2019-04-23T16:54:56.551Z,12.15
2019-04-23T16:57:32.645Z,12.23
2019-04-23T17:00:06.732Z,12.85
2019-04-23T17:04:54.774Z,13.75
2019-04-23T17:07:20.965Z,14.00
2019-04-23T17:10:08.241Z,13.30
2019-04-23T17:12:17.850Z,12.95
2019-04-23T17:15:03.302Z,12.73
2019-04-23T17:17:25.315Z,12.55
2019-04-23T17:20:00.703Z,13.70
2019-04-23T17:22:24.511Z,13.08
2019-04-23T17:25:07.475Z,13.05
2019-04-23T17:27:32.884Z,13.22
2019-04-23T17:30:06.452Z,12.80
2019-04-23T17:32:36.756Z,13.48
2019-04-23T17:35:17.549Z,15.10
2019-04-23T17:42:48.487Z,15.13
2019-04-23T17:48:13.330Z,16.12
2019-04-23T17:51:02.681Z,15.48
2019-04-23T17:53:20.020Z,16.00
2019-04-23T17:55:54.989Z,15.72
2019-04-23T17:58:16.137Z,15.60
2019-04-23T18:01:03.907Z,16.45
2019-04-23T18:06:08.821Z,18.60
2019-04-23T18:08:21.285Z,18.40
2019-04-23T18:10:56.440Z,20.62
2019-04-23T18:13:28.253Z,21.17
2019-04-23T18:16:04.046Z,20.90
2019-04-23T18:18:31.106Z,21.50
2019-04-23T18:21:14.410Z,22.80
2019-04-23T18:23:34.463Z,22.27
2019-04-23T18:26:14.191Z,21.37
2019-04-23T18:28:45.892Z,21.20
2019-04-23T18:31:13.055Z,21.65
2019-04-23T18:36:13.252Z,20.23
2019-04-23T18:41:38.250Z,20.30
2019-04-23T18:43:51.152Z,21.45
2019-04-23T18:46:27.898Z,21.05
2019-04-23T18:48:51.882Z,21.23
2019-04-23T18:51:10.713Z,20.95
2019-04-23T18:53:48.537Z,21.27
2019-04-23T18:56:23.134Z,21.12
2019-04-23T19:01:27.854Z,20.92
2019-04-23T19:04:07.079Z,21.93
2019-04-23T19:06:34.487Z,20.95
2019-04-23T19:09:24.480Z,21.37
2019-04-23T19:12:26.720Z,20.50
2019-04-23T19:19:40.626Z,22.22
2019-04-23T19:22:20.746Z,21.60
2019-04-23T19:27:20.687Z,20.50
2019-04-23T19:32:00.746Z,21.60
2019-04-23T19:42:26.675Z,20.80
2019-04-23T19:49:41.984Z,20.57
2019-04-23T19:52:18.698Z,20.82
2019-04-23T19:54:52.479Z,21.12
2019-04-23T19:57:19.440Z,19.82
2019-04-23T20:00:02.762Z,19.98
2019-04-23T20:02:17.492Z,20.52
2019-04-23T20:04:50.705Z,19.62
2019-04-23T20:07:24.817Z,20.55
2019-04-23T20:12:14.183Z,19.45
2019-04-23T20:19:48.550Z,20.77
2019-04-23T20:22:26.048Z,20.30
2019-04-23T20:25:20.857Z,22.42
2019-04-23T20:30:19.789Z,23.15
2019-04-23T20:35:13.125Z,22.30
2019-04-23T20:38:09.777Z,22.42
2019-04-23T20:40:25.755Z,23.35
2019-04-23T20:42:47.021Z,23.90
2019-04-23T20:45:16.270Z,23.92
2019-04-23T20:47:45.421Z,22.48
2019-04-23T20:50:06.902Z,23.07
2019-04-23T20:52:41.160Z,21.02
2019-04-23T20:55:20.445Z,20.80
2019-04-23T20:57:57.145Z,22.05
2019-04-23T21:00:49.816Z,21.10
2019-04-23T21:03:26.003Z,20.90
2019-04-23T21:05:27.695Z,20.15
2019-04-23T21:08:11.747Z,21.40
2019-04-23T21:10:44.954Z,21.40
2019-04-23T21:13:17.223Z,22.58
2019-04-23T21:18:18.961Z,22.67
2019-04-23T21:20:42.963Z,23.18
2019-04-23T21:23:12.530Z,22.58
2019-04-23T21:25:44.550Z,22.65
2019-04-23T21:28:27.163Z,22.02
2019-04-23T21:38:51.216Z,21.82
2019-04-23T21:41:45.136Z,22.42
2019-04-23T21:46:33.956Z,22.98
2019-04-23T21:49:09.168Z,23.62
2019-04-23T21:51:41.464Z,21.85
2019-04-23T22:09:08.815Z,23.27
2019-04-23T22:16:42.935Z,23.85
2019-04-23T22:19:10.703Z,23.73
2019-04-23T22:21:41.199Z,23.18
2019-04-23T22:26:34.841Z,22.87
2019-04-23T22:29:14.354Z,22.22
2019-04-23T22:34:15.779Z,23.07
2019-04-23T22:36:40.762Z,21.02
2019-04-23T22:39:11.521Z,21.70
2019-04-23T22:41:46.246Z,21.93
2019-04-23T22:44:09.501Z,21.48
2019-04-23T22:49:28.715Z,20.43
2019-04-23T22:54:21.275Z,21.50
2019-04-23T22:56:56.238Z,21.90
2019-04-23T23:02:03.895Z,20.32
2019-04-23T23:04:28.685Z,21.07
2019-04-23T23:07:03.296Z,19.90
2019-04-23T23:09:33.451Z,19.87
2019-04-23T23:14:27.963Z,18.98
2019-04-23T23:17:16.793Z,18.73
2019-04-23T23:19:45.661Z,17.95
2019-04-23T23:24:25.383Z,17.67
2019-04-23T23:27:10.345Z,17.77
2019-04-23T23:29:28.055Z,17.98
2019-04-23T23:32:09.637Z,17.07
2019-04-23T23:34:48.513Z,18.12
2019-04-23T23:37:07.426Z,19.05
2019-04-23T23:39:41.254Z,18.67
2019-04-23T23:47:14.717Z,17.45
2019-04-23T23:49:43.529Z,18.45
2019-04-23T23:54:49.578Z,19.05
